createdAt,value
2023-03-29T00:00:03.003Z,0
2023-03-29T00:15:02.264Z,0
2023-03-29T00:30:02.705Z,0
2023-03-29T00:45:03.200Z,0
2023-03-29T01:00:02.587Z,0
2023-03-29T01:15:03.057Z,0
2023-03-29T01:30:02.453Z,0
2023-03-29T01:45:03.037Z,0
2023-03-29T02:00:02.317Z,0
2023-03-29T02:15:02.941Z,0
2023-03-29T02:30:02.171Z,0
2023-03-29T02:45:02.650Z,0
2023-03-29T03:00:03.136Z,0
2023-03-29T03:15:02.506Z,0
2023-03-29T03:30:03.031Z,0
2023-03-29T03:45:02.361Z,0
2023-03-29T04:00:03.023Z,0
2023-03-29T04:15:02.257Z,0
2023-03-29T04:30:02.713Z,0
2023-03-29T04:45:03.145Z,0
2023-03-29T05:00:02.583Z,0
2023-03-29T05:15:03.077Z,0
2023-03-29T05:30:02.456Z,4
2023-03-29T05:45:03.072Z,19
2023-03-29T06:00:02.331Z,7
2023-03-29T06:15:02.761Z,6
2023-03-29T06:30:02.201Z,6
2023-03-29T06:45:02.613Z,19
2023-03-29T07:00:03.088Z,24
2023-03-29T07:15:02.500Z,40
2023-03-29T07:30:03.082Z,31
2023-03-29T07:45:02.417Z,32
2023-03-29T08:00:02.827Z,41
2023-03-29T08:15:02.254Z,63
2023-03-29T08:30:02.676Z,60
2023-03-29T08:45:03.133Z,63
2023-03-29T09:00:02.548Z,65
2023-03-29T09:15:03.090Z,81
2023-03-29T09:30:02.401Z,77
2023-03-29T09:45:03.084Z,167
2023-03-29T10:00:02.331Z,144
2023-03-29T10:15:02.764Z,96
2023-03-29T10:30:02.173Z,76
2023-03-29T10:45:02.644Z,162
2023-03-29T11:00:03.115Z,220
2023-03-29T11:15:02.489Z,95
2023-03-29T11:30:03.120Z,142
2023-03-29T11:45:02.348Z,114
2023-03-29T12:00:02.800Z,72
2023-03-29T12:15:03.246Z,103
2023-03-29T12:30:02.649Z,175
2023-03-29T12:45:03.136Z,122
2023-03-29T13:00:02.548Z,151
2023-03-29T13:15:03.137Z,114
2023-03-29T13:30:02.427Z,51
2023-03-29T13:45:02.890Z,77
2023-03-29T14:00:02.359Z,107
2023-03-29T14:15:02.755Z,91
2023-03-29T14:30:02.228Z,125
2023-03-29T14:45:02.625Z,86
2023-03-29T15:00:03.201Z,137
2023-03-29T15:15:02.546Z,132
2023-03-29T15:30:03.220Z,99
2023-03-29T15:45:02.406Z,83
2023-03-29T16:00:02.843Z,98
2023-03-29T16:15:02.274Z,77
2023-03-29T16:30:02.703Z,64
2023-03-29T16:45:03.196Z,39
2023-03-29T17:00:02.583Z,11
2023-03-29T17:15:03.168Z,7
2023-03-29T17:30:02.443Z,0
2023-03-29T17:45:02.916Z,0
2023-03-29T18:00:02.333Z,0
2023-03-29T18:15:02.811Z,0
2023-03-29T18:30:02.228Z,0
2023-03-29T18:45:02.713Z,0
2023-03-29T19:00:03.199Z,0
2023-03-29T19:15:02.571Z,0
2023-03-29T19:30:03.205Z,0
2023-03-29T19:45:02.441Z,0
2023-03-29T20:00:02.862Z,0
2023-03-29T20:15:02.279Z,0
2023-03-29T20:30:02.718Z,0
2023-03-29T20:45:03.217Z,0
2023-03-29T21:00:02.555Z,0
2023-03-29T21:15:03.262Z,0
2023-03-29T21:30:02.477Z,0
2023-03-29T21:45:02.907Z,0
2023-03-29T22:00:02.418Z,0
2023-03-29T22:15:02.760Z,0
2023-03-29T22:30:02.303Z,0
2023-03-29T22:45:02.656Z,0
2023-03-29T23:00:03.246Z,0
2023-03-29T23:15:02.550Z,0
2023-03-29T23:30:03.217Z,0
2023-03-29T23:45:02.448Z,0
